Time;durP1;ratioP1;P1;durP2;ratioP2;P2;SDS_P1;SDS_P2;PMS_P1;PMS_P2;Temp;Humidity;BMP_temperature;BMP_pressure;BME280_temperature;BME280_humidity;BME280_pressure;Samples;Min_cycle;Max_cycle;Signal;HPM_P1;HPM_P2
2022/05/13 00:02:13;;;;;;;6.80;3.90;;;14.80;99.90;;;;;;5108240;28;20080;-85
2022/05/13 00:04:39;;;;;;;9.07;3.70;;;14.80;99.90;;;;;;5116084;27;20030;-85
2022/05/13 00:07:12;;;;;;;11.80;3.47;;;14.90;99.90;;;;;;5094494;28;20016;-84
2022/05/13 00:12:28;;;;;;;12.43;4.03;;;14.80;99.90;;;;;;5113354;28;20042;-84
2022/05/13 00:14:54;;;;;;;11.07;4.15;;;14.90;99.90;;;;;;5122085;27;20038;-85
2022/05/13 00:17:21;;;;;;;4.88;2.92;;;14.90;99.90;;;;;;5096338;28;20076;-84
2022/05/13 00:19:47;;;;;;;6.35;3.08;;;14.80;99.90;;;;;;5114126;28;20512;-84
2022/05/13 00:22:25;;;;;;;14.57;3.42;;;14.80;99.90;;;;;;5105510;28;20028;-85
2022/05/13 00:24:53;;;;;;;6.43;3.08;;;14.80;99.90;;;;;;5108846;27;20027;-84
2022/05/13 00:27:19;;;;;;;11.05;4.18;;;14.80;99.90;;;;;;5101135;28;20039;-84
2022/05/13 00:29:44;;;;;;;11.20;4.00;;;14.80;99.90;;;;;;5094046;28;20040;-84
2022/05/13 00:32:20;;;;;;;13.07;3.65;;;14.80;99.90;;;;;;5108883;28;20035;-85
2022/05/13 00:34:48;;;;;;;;;;;14.80;99.90;;;;;;5109028;28;20024;-85
2022/05/13 00:37:14;;;;;;;6.00;3.78;;;14.80;99.90;;;;;;5107369;28;19972;-85
2022/05/13 00:40:15;;;;;;;8.13;3.72;;;14.90;99.90;;;;;;5114458;28;20020;-86
2022/05/13 00:42:42;;;;;;;9.50;3.72;;;14.80;99.90;;;;;;5091404;28;20024;-85
2022/05/13 00:45:08;;;;;;;9.13;4.20;;;14.70;99.90;;;;;;5107089;28;20020;-85
2022/05/13 00:47:41;;;;;;;6.97;3.63;;;14.70;99.90;;;;;;5096218;28;20035;-85
2022/05/13 00:50:08;;;;;;;13.95;4.10;;;14.70;99.90;;;;;;5112769;28;20024;-85
2022/05/13 00:52:42;;;;;;;8.23;3.80;;;14.70;99.90;;;;;;5113522;28;20444;-85
2022/05/13 00:55:11;;;;;;;5.90;3.75;;;14.60;99.90;;;;;;5113723;28;20011;-85
2022/05/13 00:57:39;;;;;;;10.10;3.90;;;14.60;99.90;;;;;;5113632;28;20114;-85
2022/05/13 01:00:08;;;;;;;10.13;4.30;;;14.50;99.90;;;;;;5113190;28;20479;-84
2022/05/13 01:02:35;;;;;;;13.15;4.40;;;14.50;99.90;;;;;;5093991;28;20113;-84
2022/05/13 01:05:05;;;;;;;9.07;4.72;;;14.40;99.90;;;;;;5124133;27;20030;-85
2022/05/13 01:07:31;;;;;;;6.90;4.32;;;14.40;99.90;;;;;;5113145;27;20429;-85
2022/05/13 01:10:03;;;;;;;13.65;5.57;;;14.40;99.90;;;;;;5108064;27;20031;-85
2022/05/13 01:12:34;;;;;;;14.98;5.13;;;14.30;99.90;;;;;;5096501;28;20058;-84
2022/05/13 01:15:11;;;;;;;10.60;4.20;;;14.30;99.90;;;;;;5115369;27;20428;-84
2022/05/13 01:20:28;;;;;;;13.05;4.57;;;14.30;99.90;;;;;;5117248;27;20167;-84
2022/05/13 01:23:09;;;;;;;8.30;4.78;;;14.20;99.90;;;;;;5106556;27;20037;-85
2022/05/13 01:26:01;;;;;;;8.98;4.78;;;14.20;99.90;;;;;;5102764;28;20108;-85
2022/05/13 01:28:30;;;;;;;9.65;4.53;;;14.20;99.90;;;;;;5088548;28;20036;-85
2022/05/13 01:31:10;;;;;;;7.50;4.88;;;14.10;99.90;;;;;;5100583;28;20497;-84
2022/05/13 01:33:36;;;;;;;8.18;5.38;;;14.00;99.90;;;;;;5104386;28;20512;-84
2022/05/13 01:36:06;;;;;;;10.05;5.10;;;14.10;99.90;;;;;;5108036;27;20012;-84
2022/05/13 01:38:36;;;;;;;14.35;5.63;;;14.00;99.90;;;;;;5112629;28;20368;-84
2022/05/13 01:41:14;;;;;;;7.95;5.03;;;14.00;99.90;;;;;;5104248;28;20494;-84
2022/05/13 01:43:42;;;;;;;10.07;5.35;;;14.00;99.90;;;;;;5096555;28;20020;-84
2022/05/13 01:46:10;;;;;;;14.70;6.30;;;14.00;99.90;;;;;;5090146;28;20051;-84
2022/05/13 01:48:37;;;;;;;17.00;6.15;;;13.90;99.90;;;;;;5113039;28;20035;-84
2022/05/13 01:51:02;;;;;;;16.38;6.95;;;14.00;99.90;;;;;;5105847;28;20376;-84
2022/05/13 01:53:35;;;;;;;10.43;5.78;;;14.00;99.90;;;;;;5113072;28;20034;-84
2022/05/13 01:56:03;;;;;;;16.02;6.50;;;14.00;99.90;;;;;;5106080;28;20055;-84
2022/05/13 01:58:28;;;;;;;14.38;7.10;;;14.00;99.90;;;;;;5094476;28;20073;-84
2022/05/13 02:01:01;;;;;;;13.07;6.35;;;14.00;99.90;;;;;;5077033;28;20353;-84
2022/05/13 02:03:46;;;;;;;18.30;6.95;;;14.00;99.90;;;;;;5101830;28;20031;-84
2022/05/13 02:06:12;;;;;;;14.93;6.32;;;14.00;99.90;;;;;;5120601;28;20036;-84
2022/05/13 02:08:38;;;;;;;15.95;6.22;;;14.00;99.90;;;;;;5109602;28;20020;-84
2022/05/13 02:11:04;;;;;;;16.52;6.55;;;14.00;99.90;;;;;;5100593;28;20127;-84
2022/05/13 02:13:30;;;;;;;15.82;6.03;;;14.00;99.90;;;;;;5098496;28;20095;-84
2022/05/13 02:15:55;;;;;;;12.63;6.22;;;14.00;99.90;;;;;;5092780;28;20052;-84
2022/05/13 02:18:24;;;;;;;15.68;7.57;;;14.00;99.90;;;;;;5093075;28;20024;-84
2022/05/13 02:20:50;;;;;;;19.00;6.55;;;14.00;99.90;;;;;;5078683;28;20021;-84
2022/05/13 02:23:35;;;;;;;14.63;7.47;;;14.00;99.90;;;;;;5105210;28;20379;-84
2022/05/13 02:26:03;;;;;;;17.75;7.80;;;14.00;99.90;;;;;;5116914;28;20055;-84
2022/05/13 02:28:31;;;;;;;19.92;7.07;;;14.00;99.90;;;;;;5115436;28;20467;-84
2022/05/13 02:30:59;;;;;;;13.85;7.00;;;14.00;99.90;;;;;;5117197;28;20077;-84
2022/05/13 02:33:25;;;;;;;15.93;7.38;;;14.00;99.90;;;;;;5114599;27;20035;-84
2022/05/13 02:35:53;;;;;;;16.52;7.93;;;14.00;99.90;;;;;;5096468;28;20422;-85
2022/05/13 02:38:22;;;;;;;18.67;7.47;;;14.00;99.90;;;;;;5096585;28;20027;-84
2022/05/13 02:43:34;;;;;;;15.60;6.60;;;14.00;99.90;;;;;;5116580;28;20027;-84
2022/05/13 02:45:59;;;;;;;19.00;7.22;;;14.00;99.90;;;;;;5079384;28;20040;-84
2022/05/13 02:48:34;;;;;;;17.80;7.13;;;14.00;99.90;;;;;;5114173;27;20042;-84
2022/05/13 02:51:00;;;;;;;12.40;6.60;;;14.00;99.90;;;;;;5123779;27;20034;-84
2022/05/13 02:53:33;;;;;;;17.42;6.47;;;13.90;99.90;;;;;;5136902;27;20031;-84
2022/05/13 02:55:58;;;;;;;12.63;6.70;;;13.90;99.90;;;;;;5101641;27;20771;-85
2022/05/13 02:58:24;;;;;;;15.20;6.78;;;13.90;99.90;;;;;;5077627;28;20024;-84
2022/05/13 03:00:49;;;;;;;15.40;7.05;;;13.90;99.90;;;;;;5104903;28;20369;-85
2022/05/13 03:03:21;;;;;;;17.50;6.57;;;13.90;99.90;;;;;;5095979;28;20027;-85
2022/05/13 03:05:47;;;;;;;18.10;6.57;;;13.90;99.90;;;;;;5105130;27;20046;-85
2022/05/13 03:08:19;;;;;;;14.88;6.85;;;13.90;99.90;;;;;;5112093;28;20492;-84
2022/05/13 03:10:44;;;;;;;17.52;7.00;;;13.80;99.90;;;;;;5108388;27;20020;-84
2022/05/13 03:13:20;;;;;;;17.40;7.85;;;13.90;99.90;;;;;;5104179;28;20029;-84
2022/05/13 03:15:46;;;;;;;;;;;13.90;99.90;;;;;;5128900;27;20038;-84
2022/05/13 03:18:13;;;;;;;14.75;7.07;;;13.90;99.90;;;;;;5115678;28;20389;-85
2022/05/13 03:20:40;;;;;;;16.75;7.28;;;13.90;99.90;;;;;;5115808;28;20024;-83
2022/05/13 03:23:14;;;;;;;14.45;6.90;;;13.80;99.90;;;;;;5106196;27;20058;-83
2022/05/13 03:25:39;;;;;;;19.67;7.30;;;13.80;99.90;;;;;;5100212;28;20495;-83
2022/05/13 03:28:05;;;;;;;16.42;7.22;;;13.80;99.90;;;;;;5111981;27;20023;-83
2022/05/13 03:30:31;;;;;;;18.20;7.03;;;13.80;99.90;;;;;;5092365;28;20529;-84
2022/05/13 03:33:04;;;;;;;20.23;7.88;;;13.80;99.90;;;;;;5105621;28;20024;-83
2022/05/13 03:35:30;;;;;;;12.88;7.30;;;13.80;99.90;;;;;;5094955;27;20421;-83
2022/05/13 03:37:58;;;;;;;21.58;7.43;;;13.70;99.90;;;;;;5108334;27;20106;-83
2022/05/13 03:40:23;;;;;;;28.42;8.65;;;13.80;99.90;;;;;;5110135;28;20024;-83
2022/05/13 03:42:50;;;;;;;14.38;6.65;;;13.80;99.90;;;;;;5111216;28;20024;-84
2022/05/13 03:45:18;;;;;;;18.23;7.95;;;13.80;99.90;;;;;;5095728;28;20359;-83
2022/05/13 03:47:55;;;;;;;14.30;6.90;;;13.70;99.90;;;;;;5106638;27;20476;-83
2022/05/13 03:50:21;;;;;;;21.60;8.07;;;13.70;99.90;;;;;;5107988;28;20023;-83
2022/05/13 03:52:49;;;;;;;20.55;7.68;;;13.80;99.90;;;;;;5113519;28;20357;-83
2022/05/13 03:55:14;;;;;;;19.13;7.03;;;13.70;99.90;;;;;;5108691;28;20030;-83
2022/05/13 03:57:43;;;;;;;25.08;6.22;;;13.80;99.90;;;;;;5114744;28;20039;-83
2022/05/13 04:00:11;;;;;;;23.73;7.13;;;13.80;99.90;;;;;;5109340;28;20028;-83
2022/05/13 04:02:37;;;;;;;11.48;5.88;;;13.80;99.90;;;;;;5113881;28;20069;-83
2022/05/13 04:10:34;;;;;;;24.55;6.47;;;13.80;99.90;;;;;;5107478;28;20039;-83
2022/05/13 04:18:31;;;;;;;17.23;5.50;;;13.80;99.90;;;;;;5112175;28;20437;-83
2022/05/13 04:20:57;;;;;;;8.13;4.10;;;13.90;99.90;;;;;;5098051;28;20091;-83
2022/05/13 04:23:24;;;;;;;13.77;4.97;;;13.90;99.90;;;;;;5114332;28;20099;-84
2022/05/13 04:25:50;;;;;;;20.35;5.95;;;13.90;99.90;;;;;;5078553;28;20024;-83
2022/05/13 04:28:16;;;;;;;11.90;4.75;;;13.90;99.90;;;;;;5093769;28;20028;-83
2022/05/13 04:30:42;;;;;;;18.42;4.97;;;13.90;99.90;;;;;;5102131;28;20032;-84
2022/05/13 04:33:12;;;;;;;9.60;4.25;;;14.00;99.90;;;;;;5102826;28;20024;-83
2022/05/13 04:35:38;;;;;;;12.07;4.97;;;14.00;99.90;;;;;;5113563;28;20016;-84
2022/05/13 04:38:06;;;;;;;10.38;4.90;;;14.00;99.90;;;;;;5091378;28;20468;-83
2022/05/13 04:40:31;;;;;;;9.98;4.25;;;14.00;99.90;;;;;;5080494;28;20118;-83
2022/05/13 04:42:57;;;;;;;13.57;4.63;;;14.10;99.90;;;;;;5110283;28;20106;-83
2022/05/13 04:45:27;;;;;;;8.95;4.20;;;14.10;99.90;;;;;;5102274;28;20016;-84
2022/05/13 04:48:17;;;;;;;15.85;4.68;;;14.10;99.90;;;;;;5092433;28;20039;-83
2022/05/13 04:50:46;;;;;;;11.43;3.97;;;14.20;99.90;;;;;;5105717;28;20023;-83
2022/05/13 04:53:16;;;;;;;14.32;4.53;;;14.20;99.90;;;;;;5111064;28;20102;-83
2022/05/13 04:55:43;;;;;;;19.73;4.40;;;14.20;99.90;;;;;;5112601;28;20119;-82
2022/05/13 04:58:09;;;;;;;11.57;4.05;;;14.30;99.90;;;;;;5113136;28;20072;-84
2022/05/13 05:00:40;;;;;;;17.38;5.13;;;14.20;99.90;;;;;;5102082;28;20028;-84
2022/05/13 05:03:06;;;;;;;12.80;4.28;;;14.20;99.90;;;;;;5083458;28;20402;-84
2022/05/13 05:05:32;;;;;;;11.65;4.05;;;14.30;99.90;;;;;;5113584;28;20031;-84
2022/05/13 05:07:57;;;;;;;14.73;4.78;;;14.30;99.90;;;;;;5094492;28;20032;-83
2022/05/13 05:10:25;;;;;;;10.13;4.32;;;14.30;99.90;;;;;;5113393;28;20044;-83
2022/05/13 05:12:55;;;;;;;13.75;4.60;;;14.40;99.90;;;;;;5109189;28;20024;-83
2022/05/13 05:15:32;;;;;;;19.10;4.93;;;14.40;99.90;;;;;;5112885;28;20043;-83
2022/05/13 05:17:58;;;;;;;11.90;4.82;;;14.40;99.90;;;;;;5111271;28;20038;-84
2022/05/13 05:20:24;;;;;;;14.90;4.68;;;14.40;99.90;;;;;;5112202;28;20019;-84
2022/05/13 05:22:50;;;;;;;18.75;5.03;;;14.40;99.90;;;;;;5113237;28;20056;-83
2022/05/13 05:25:29;;;;;;;13.80;4.70;;;14.40;99.90;;;;;;5091825;28;20349;-83
2022/05/13 05:27:56;;;;;;;15.93;5.80;;;14.50;99.90;;;;;;5109366;28;20168;-84
2022/05/13 05:30:32;;;;;;;15.18;5.65;;;14.50;99.90;;;;;;5112142;28;20099;-83
2022/05/13 05:32:57;;;;;;;13.93;5.05;;;14.50;99.90;;;;;;5112910;28;20038;-84
2022/05/13 05:35:24;;;;;;;12.98;4.10;;;14.50;99.90;;;;;;5112450;28;20023;-84
2022/05/13 05:37:50;;;;;;;11.02;4.00;;;14.50;99.90;;;;;;5112006;28;20102;-84
2022/05/13 05:40:18;;;;;;;14.45;5.03;;;14.50;99.90;;;;;;5112703;28;20475;-84
2022/05/13 05:42:44;;;;;;;16.38;4.68;;;14.60;99.90;;;;;;5111799;28;20483;-84
2022/05/13 05:45:13;;;;;;;14.55;5.00;;;14.60;99.90;;;;;;5110877;28;20031;-84
2022/05/13 05:47:39;;;;;;;20.52;4.80;;;14.60;99.90;;;;;;5112878;28;20531;-83
2022/05/13 05:50:13;;;;;;;15.82;4.70;;;14.70;99.90;;;;;;5112062;28;20027;-83
2022/05/13 05:52:39;;;;;;;15.48;4.22;;;14.70;99.90;;;;;;5112495;28;20020;-83
2022/05/13 05:58:03;;;;;;;12.25;4.68;;;14.80;99.90;;;;;;5111201;28;20054;-82
2022/05/13 06:00:35;;;;;;;12.18;4.82;;;14.80;99.90;;;;;;5112951;28;20022;-83
2022/05/13 06:03:00;;;;;;;14.20;4.18;;;14.90;99.90;;;;;;5111728;28;20077;-84
2022/05/13 06:05:27;;;;;;;17.65;5.15;;;14.90;99.90;;;;;;5112495;28;20036;-83
2022/05/13 06:07:55;;;;;;;15.77;4.38;;;15.00;99.90;;;;;;5095123;28;20505;-83
2022/05/13 06:10:23;;;;;;;12.30;4.70;;;14.90;99.90;;;;;;5112866;28;20105;-83
2022/05/13 06:12:49;;;;;;;15.18;4.38;;;15.00;99.90;;;;;;5111882;28;20038;-83
2022/05/13 06:15:15;;;;;;;14.25;4.95;;;15.10;99.90;;;;;;5097227;28;20016;-83
2022/05/13 06:17:52;;;;;;;12.60;4.50;;;15.20;99.90;;;;;;5112687;28;20034;-83
2022/05/13 06:20:20;;;;;;;19.80;5.68;;;15.20;99.90;;;;;;5112792;28;20031;-83
2022/05/13 06:22:45;;;;;;;11.48;5.43;;;15.30;99.90;;;;;;5092388;28;20627;-84
2022/05/13 06:25:15;;;;;;;14.75;5.32;;;15.20;99.90;;;;;;5092588;28;20036;-83
2022/05/13 06:27:42;;;;;;;13.82;5.22;;;15.20;99.90;;;;;;5091916;28;20020;-83
2022/05/13 06:30:10;;;;;;;11.95;5.28;;;15.20;99.90;;;;;;5102634;28;20034;-83
2022/05/13 06:32:36;;;;;;;12.48;5.40;;;15.20;99.90;;;;;;5088570;28;20615;-84
2022/05/13 06:35:04;;;;;;;15.98;5.25;;;15.20;99.90;;;;;;5112560;28;20043;-83
2022/05/13 06:37:30;;;;;;;19.67;5.95;;;15.30;99.90;;;;;;5094119;28;20020;-83
2022/05/13 06:39:57;;;;;;;15.90;5.35;;;15.50;99.90;;;;;;5112833;28;20081;-84
2022/05/13 06:42:23;;;;;;;16.60;5.47;;;15.50;99.90;;;;;;5111996;28;20357;-83
2022/05/13 06:44:48;;;;;;;18.35;5.82;;;15.60;99.90;;;;;;5103877;28;20036;-83
2022/05/13 06:47:15;;;;;;;17.70;5.65;;;15.50;99.90;;;;;;5109234;28;20379;-83
2022/05/13 06:49:49;;;;;;;12.38;4.97;;;15.60;99.90;;;;;;5110613;28;20031;-83
2022/05/13 06:52:15;;;;;;;17.05;6.07;;;15.60;99.90;;;;;;5112710;28;20028;-83
2022/05/13 06:54:44;;;;;;;25.00;6.50;;;15.60;99.90;;;;;;5086800;28;20016;-84
2022/05/13 06:57:11;;;;;;;15.57;5.50;;;15.60;99.90;;;;;;5101638;28;20043;-83
2022/05/13 06:59:37;;;;;;;14.07;6.93;;;15.70;99.90;;;;;;5105483;28;20016;-83
2022/05/13 07:02:04;;;;;;;14.38;5.70;;;15.70;99.90;;;;;;5101429;28;20030;-83
2022/05/13 07:04:29;;;;;;;14.23;5.53;;;15.70;99.90;;;;;;5093181;28;20399;-83
2022/05/13 07:06:59;;;;;;;16.20;5.50;;;15.70;99.90;;;;;;5096000;28;20036;-83
2022/05/13 07:09:25;;;;;;;15.63;5.43;;;15.80;99.90;;;;;;5095212;28;20349;-83
2022/05/13 07:11:51;;;;;;;10.55;4.72;;;15.80;99.90;;;;;;5077207;28;20020;-83
2022/05/13 07:14:17;;;;;;;17.08;4.75;;;15.80;99.90;;;;;;5095201;28;20442;-83
2022/05/13 07:16:43;;;;;;;22.08;6.13;;;15.70;99.90;;;;;;5111194;28;20050;-83
2022/05/13 07:19:09;;;;;;;20.65;5.40;;;15.70;99.90;;;;;;5095499;28;20111;-83
2022/05/13 07:21:36;;;;;;;14.95;5.63;;;15.70;99.90;;;;;;5094491;28;20106;-84
2022/05/13 07:24:02;;;;;;;16.52;5.65;;;15.70;99.90;;;;;;5095322;28;20024;-83
2022/05/13 07:26:30;;;;;;;17.15;5.68;;;15.70;99.90;;;;;;5095416;28;20505;-83
2022/05/13 07:28:56;;;;;;;19.00;5.65;;;15.80;99.90;;;;;;5095057;28;20459;-83
2022/05/13 07:31:26;;;;;;;16.60;4.85;;;15.90;99.90;;;;;;5095467;28;20103;-83
2022/05/13 07:33:51;;;;;;;13.27;5.18;;;15.90;99.90;;;;;;5095229;28;20467;-83
2022/05/13 07:36:18;;;;;;;15.40;5.10;;;16.00;99.90;;;;;;5095835;28;20036;-83
2022/05/13 07:41:16;;;;;;;21.92;5.43;;;16.00;99.90;;;;;;5095342;28;20028;-83
2022/05/13 07:41:28;;;;;;;17.23;4.80;;;16.00;99.90;;;;;;5095011;28;20028;-83
2022/05/13 07:43:57;;;;;;;13.82;4.28;;;16.00;99.90;;;;;;5076661;28;20565;-83
2022/05/13 07:46:23;;;;;;;21.70;5.93;;;16.00;99.90;;;;;;5095218;28;20056;-83
2022/05/13 07:48:51;;;;;;;16.92;5.07;;;16.00;99.90;;;;;;5095075;28;20047;-83
2022/05/13 07:51:18;;;;;;;17.15;4.57;;;16.00;99.90;;;;;;5095066;28;20065;-83
2022/05/13 07:53:43;;;;;;;20.23;4.78;;;16.00;99.90;;;;;;5094804;28;20028;-83
2022/05/13 07:56:11;;;;;;;12.88;4.15;;;16.00;99.90;;;;;;5094651;28;20166;-83
2022/05/13 07:58:37;;;;;;;19.38;4.22;;;15.90;99.90;;;;;;5094642;28;20016;-83
2022/05/13 08:01:05;;;;;;;15.82;3.97;;;15.90;99.90;;;;;;5094811;28;20020;-83
2022/05/13 08:03:31;;;;;;;18.15;5.05;;;15.90;99.90;;;;;;5094643;28;20016;-84
2022/05/13 08:06:03;;;;;;;20.20;2.97;;;16.00;99.90;;;;;;5094675;28;20035;-83
2022/05/13 08:08:41;;;;;;;10.68;2.72;;;16.00;99.90;;;;;;5094700;28;20027;-84
2022/05/13 08:11:10;;;;;;;9.13;2.67;;;16.10;99.90;;;;;;5094754;28;20128;-83
2022/05/13 08:13:38;;;;;;;8.73;3.45;;;16.20;99.90;;;;;;5094306;28;20031;-83
2022/05/13 08:16:07;;;;;;;14.98;3.72;;;16.20;99.90;;;;;;5093789;28;20050;-83
2022/05/13 08:18:34;;;;;;;7.90;2.30;;;16.20;99.90;;;;;;5076259;28;20020;-83
2022/05/13 08:21:00;;;;;;;11.32;2.33;;;16.20;99.90;;;;;;5076177;28;20020;-83
2022/05/13 08:23:27;;;;;;;8.95;2.60;;;16.20;99.90;;;;;;5094222;28;20043;-83
2022/05/13 08:25:52;;;;;;;9.45;2.75;;;16.20;99.90;;;;;;5097606;28;20031;-84
2022/05/13 08:28:22;;;;;;;11.52;3.17;;;16.20;99.90;;;;;;5110745;28;20085;-83
2022/05/13 08:30:47;;;;;;;11.32;2.88;;;16.20;99.90;;;;;;5112598;28;20072;-84
2022/05/13 08:33:17;;;;;;;13.88;2.58;;;16.10;99.90;;;;;;5103789;28;20015;-83
2022/05/13 08:35:46;;;;;;;9.77;2.95;;;16.10;99.90;;;;;;5094919;28;20027;-84
2022/05/13 08:38:15;;;;;;;8.40;2.58;;;16.10;99.90;;;;;;5114362;28;20043;-83
2022/05/13 08:40:50;;;;;;;19.13;3.67;;;16.10;99.90;;;;;;5114482;28;20024;-84
2022/05/13 08:43:36;;;;;;;18.57;3.33;;;16.10;99.90;;;;;;5095712;28;20073;-84
2022/05/13 08:46:08;;;;;;;;;;;16.00;99.90;;;;;;5114639;28;20030;-83
2022/05/13 08:49:06;;;;;;;12.63;3.47;;;15.90;99.90;;;;;;5114349;28;19911;-84
2022/05/13 08:51:47;;;;;;;10.70;3.83;;;15.80;99.90;;;;;;5114304;28;20444;-83
2022/05/13 08:54:19;;;;;;;10.63;3.10;;;15.80;99.90;;;;;;5114120;28;20483;-83
2022/05/13 08:56:52;;;;;;;9.30;2.80;;;15.80;99.90;;;;;;5101827;28;20079;-84
2022/05/13 08:59:27;;;;;;;19.02;4.03;;;15.80;99.90;;;;;;5067020;28;20023;-83
2022/05/13 09:02:01;;;;;;;13.32;3.33;;;15.90;99.90;;;;;;5076445;28;20099;-84
2022/05/13 09:04:42;;;;;;;11.80;3.33;;;16.00;99.90;;;;;;5099432;28;20115;-84
2022/05/13 09:07:16;;;;;;;12.88;2.50;;;16.00;99.90;;;;;;5072830;28;20488;-83
2022/05/13 09:09:45;;;;;;;10.40;2.95;;;16.10;99.90;;;;;;5086244;28;20046;-84
2022/05/13 09:12:24;;;;;;;8.93;3.38;;;16.10;99.90;;;;;;5092661;28;20046;-82
2022/05/13 09:15:12;;;;;;;11.48;2.95;;;16.00;99.90;;;;;;5090116;28;20024;-83
2022/05/13 09:17:42;;;;;;;11.23;2.75;;;15.90;99.90;;;;;;5091794;28;20073;-81
2022/05/13 09:20:16;;;;;;;15.38;4.32;;;15.80;99.90;;;;;;5091852;28;20035;-82
2022/05/13 09:22:49;;;;;;;12.40;3.47;;;15.90;99.90;;;;;;5092480;28;20512;-81
2022/05/13 09:25:43;;;;;;;12.68;2.90;;;15.90;99.90;;;;;;5092906;28;20103;-81
2022/05/13 09:28:12;;;;;;;13.57;4.10;;;16.00;99.90;;;;;;5086374;28;20047;-81
2022/05/13 09:30:45;;;;;;;10.65;2.85;;;16.20;99.90;;;;;;5092211;28;20067;-83
2022/05/13 09:33:17;;;;;;;14.02;3.38;;;16.20;99.90;;;;;;5093719;28;20031;-81
2022/05/13 09:35:58;;;;;;;10.05;2.72;;;16.20;99.90;;;;;;5108714;28;20024;-85
2022/05/13 09:38:27;;;;;;;12.98;3.13;;;16.30;99.90;;;;;;5075449;28;20111;-84
2022/05/13 09:41:05;;;;;;;16.48;3.50;;;16.40;99.90;;;;;;5079649;28;20016;-81
2022/05/13 09:43:38;;;;;;;7.30;2.60;;;16.40;99.90;;;;;;5068741;28;20496;-81
2022/05/13 09:46:19;;;;;;;10.88;2.15;;;16.50;99.90;;;;;;5074293;28;20501;-81
2022/05/13 09:48:59;;;;;;;9.10;2.63;;;16.60;97.80;;;;;;5093363;28;20077;-80
2022/05/13 09:51:38;;;;;;;7.55;2.00;;;16.70;99.90;;;;;;5076226;28;20028;-81
2022/05/13 09:54:24;;;;;;;8.65;3.10;;;16.80;97.90;;;;;;5078419;28;20021;-82
2022/05/13 09:57:14;;;;;;;7.97;2.30;;;16.80;96.50;;;;;;5089114;28;20081;-80
2022/05/13 09:59:45;;;;;;;12.18;2.97;;;16.80;99.90;;;;;;5096132;28;20495;-82
2022/05/13 10:02:29;;;;;;;12.48;2.50;;;16.80;99.90;;;;;;5107146;28;20032;-81
2022/05/13 10:05:10;;;;;;;12.52;2.65;;;16.80;98.30;;;;;;5112608;28;20019;-81
2022/05/13 10:07:49;;;;;;;10.57;2.72;;;16.80;98.70;;;;;;5113045;28;20029;-81
2022/05/13 10:15:58;;;;;;;13.23;2.78;;;16.90;99.90;;;;;;5106185;28;20120;-81
2022/05/13 10:18:27;;;;;;;13.75;2.83;;;17.20;92.80;;;;;;5118125;28;20325;-81
2022/05/13 10:20:58;;;;;;;8.52;2.15;;;17.40;96.20;;;;;;5114061;28;20043;-81
2022/05/13 10:23:33;;;;;;;8.07;2.30;;;17.50;91.50;;;;;;5121545;28;20031;-82
2022/05/13 10:26:03;;;;;;;9.38;1.98;;;17.40;91.40;;;;;;5105127;28;20032;-83
2022/05/13 10:28:40;;;;;;;9.95;2.65;;;17.20;91.80;;;;;;5128046;28;20059;-81
2022/05/13 10:31:19;;;;;;;7.97;2.45;;;17.00;88.80;;;;;;5107703;28;20038;-82
2022/05/13 10:34:00;;;;;;;9.20;2.22;;;16.90;94.40;;;;;;5127586;28;20035;-82
2022/05/13 10:36:40;;;;;;;7.72;2.40;;;16.70;95.80;;;;;;5133468;28;20061;-81
2022/05/13 10:39:43;;;;;;;13.75;2.75;;;16.60;95.20;;;;;;5122492;28;20028;-81
2022/05/13 10:42:21;;;;;;;8.57;2.33;;;16.60;96.90;;;;;;5109187;28;20039;-81
2022/05/13 10:44:51;;;;;;;8.70;2.10;;;16.50;95.00;;;;;;5076577;28;20030;-80
2022/05/13 10:47:42;;;;;;;6.65;2.33;;;16.50;99.40;;;;;;5112992;28;20066;-82
2022/05/13 10:50:20;;;;;;;15.38;3.33;;;16.50;99.90;;;;;;5108193;28;20451;-82
2022/05/13 10:52:58;;;;;;;11.57;3.03;;;16.50;99.90;;;;;;5114326;28;20023;-82
2022/05/13 10:55:40;;;;;;;15.02;3.17;;;16.50;99.70;;;;;;5111022;27;20031;-81
2022/05/13 10:58:35;;;;;;;9.45;2.67;;;16.50;99.90;;;;;;5108284;28;20046;-80
2022/05/13 11:01:48;;;;;;;10.18;2.53;;;16.50;99.90;;;;;;5110942;27;20039;-80
2022/05/13 11:04:37;;;;;;;7.78;2.15;;;16.70;99.90;;;;;;5043815;28;20030;-84
2022/05/13 11:07:21;;;;;;;12.60;2.90;;;16.90;94.90;;;;;;5108081;28;20095;-87
2022/05/13 11:10:26;;;;;;;8.73;2.33;;;16.90;95.40;;;;;;5115183;28;20065;-82
2022/05/13 11:13:05;;;;;;;10.40;2.63;;;16.80;99.90;;;;;;5114949;28;20092;-82
2022/05/13 11:15:55;;;;;;;12.65;2.78;;;17.00;98.20;;;;;;5114956;28;20026;-83
2022/05/13 11:18:41;;;;;;;11.13;2.55;;;17.20;95.50;;;;;;5111159;28;20015;-85
2022/05/13 11:21:28;;;;;;;10.88;1.90;;;17.10;86.30;;;;;;5095630;28;20159;-82
2022/05/13 11:27:43;;;;;;;7.20;2.13;;;16.70;93.90;;;;;;5110981;28;20455;-82
2022/05/13 11:30:12;;;;;;;10.90;2.22;;;16.70;98.30;;;;;;5104453;28;20019;-84
2022/05/13 11:33:11;;;;;;;13.93;2.17;;;16.70;99.30;;;;;;5108583;28;20036;-84
2022/05/13 11:35:51;;;;;;;9.73;1.90;;;16.60;96.80;;;;;;5115835;28;20107;-81
2022/05/13 11:38:22;;;;;;;6.95;2.28;;;16.40;99.00;;;;;;5113270;27;20082;-85
2022/05/13 11:41:08;;;;;;;11.93;2.47;;;16.40;99.90;;;;;;5111763;28;20028;-82
2022/05/13 11:43:46;;;;;;;13.68;2.25;;;16.50;99.30;;;;;;5108144;28;20024;-85
2022/05/13 11:46:55;;;;;;;7.68;2.45;;;16.50;98.30;;;;;;5113908;27;20032;-83
2022/05/13 11:49:40;;;;;;;9.32;2.67;;;16.60;96.20;;;;;;5096504;28;20561;-83
2022/05/13 11:52:11;;;;;;;8.35;1.85;;;16.70;99.40;;;;;;5109085;28;20020;-83
2022/05/13 11:54:41;;;;;;;16.02;1.85;;;16.80;95.70;;;;;;5114479;27;20822;-85
2022/05/13 11:57:39;;;;;;;9.40;2.00;;;16.90;97.20;;;;;;5109507;27;20036;-86
2022/05/13 12:00:23;;;;;;;5.60;1.88;;;16.90;96.60;;;;;;5105533;27;20396;-86
2022/05/13 12:02:55;;;;;;;12.45;2.47;;;17.00;94.90;;;;;;5108726;28;20459;-82
2022/05/13 12:05:29;;;;;;;11.98;3.10;;;16.90;95.90;;;;;;5113747;28;20023;-86
2022/05/13 12:08:00;;;;;;;13.88;2.05;;;16.90;92.70;;;;;;5117841;27;20412;-85
2022/05/13 12:11:17;;;;;;;9.18;1.90;;;16.80;95.20;;;;;;5112283;27;20035;-87
2022/05/13 12:14:05;;;;;;;8.85;1.80;;;16.80;91.90;;;;;;5078389;28;20495;-83
2022/05/13 12:16:47;;;;;;;7.95;2.10;;;16.70;82.20;;;;;;5108094;28;20047;-83
2022/05/13 12:19:31;;;;;;;10.52;2.03;;;16.60;90.10;;;;;;5094179;28;20035;-82
2022/05/13 12:22:37;;;;;;;6.72;1.60;;;16.70;90.30;;;;;;5104553;27;20028;-84
2022/05/13 12:25:10;;;;;;;19.53;2.23;;;16.60;89.70;;;;;;5100962;28;20016;-85
2022/05/13 12:27:45;;;;;;;11.50;1.67;;;16.80;91.60;;;;;;5101078;28;20500;-83
2022/05/13 12:30:42;;;;;;;5.85;1.52;;;17.10;91.50;;;;;;5111948;28;20032;-84
2022/05/13 12:33:23;;;;;;;17.48;2.05;;;17.10;79.50;;;;;;5113147;27;20480;-83
2022/05/13 12:39:10;;;;;;;9.60;1.90;;;17.30;79.80;;;;;;5106822;27;20027;-82
2022/05/13 12:41:42;;;;;;;8.50;2.20;;;17.40;77.40;;;;;;5100599;27;20439;-83
2022/05/13 12:44:25;;;;;;;7.15;1.52;;;17.40;81.40;;;;;;5116005;27;20293;-83
2022/05/13 12:47:17;;;;;;;9.45;1.65;;;17.60;84.60;;;;;;5095216;28;20027;-85
2022/05/13 12:49:48;;;;;;;4.75;1.63;;;17.80;73.60;;;;;;5092834;28;20693;-90
2022/05/13 12:52:27;;;;;;;7.30;1.20;;;17.90;75.10;;;;;;5093746;28;20031;-83
2022/05/13 12:55:24;;;;;;;7.38;1.80;;;18.00;67.20;;;;;;5092526;28;20471;-84
2022/05/13 12:58:03;;;;;;;6.30;1.67;;;18.10;66.80;;;;;;5093743;28;20089;-84
2022/05/13 13:00:40;;;;;;;12.73;1.60;;;18.00;63.90;;;;;;5094031;28;20057;-83
2022/05/13 13:03:13;;;;;;;6.70;1.33;;;17.80;67.50;;;;;;5093132;28;20024;-87
2022/05/13 13:05:57;;;;;;;6.18;1.58;;;17.80;67.50;;;;;;5092346;28;20024;-83
2022/05/13 13:08:36;;;;;;;4.40;1.17;;;17.60;67.90;;;;;;5092293;28;20032;-83
2022/05/13 13:11:24;;;;;;;11.15;2.03;;;17.50;71.30;;;;;;5093604;28;20028;-84
2022/05/13 13:14:12;;;;;;;9.77;1.25;;;17.50;77.40;;;;;;5091954;28;20028;-83
2022/05/13 13:17:07;;;;;;;10.57;1.60;;;17.60;74.50;;;;;;5093363;28;20387;-84
2022/05/13 13:19:33;;;;;;;12.88;1.73;;;17.80;75.40;;;;;;5073615;28;20114;-83
2022/05/13 13:22:08;;;;;;;6.93;1.42;;;17.90;69.20;;;;;;5093340;28;20063;-85
2022/05/13 13:24:35;;;;;;;;;;;17.80;68.20;;;;;;5093481;28;20032;-85
2022/05/13 13:27:04;;;;;;;8.45;1.45;;;17.70;68.10;;;;;;5108844;28;19954;-83
2022/05/13 13:29:37;;;;;;;7.55;1.67;;;17.50;69.90;;;;;;5093248;28;20029;-83
2022/05/13 13:32:11;;;;;;;9.18;1.55;;;17.40;72.00;;;;;;5093397;28;20032;-84
2022/05/13 13:34:40;;;;;;;10.73;1.55;;;17.20;75.00;;;;;;5091842;28;20484;-83
2022/05/13 13:37:12;;;;;;;9.82;1.40;;;17.10;78.30;;;;;;5091953;28;20020;-82
2022/05/13 13:39:38;;;;;;;9.48;1.48;;;17.00;79.30;;;;;;5093216;28;20027;-82
2022/05/13 13:42:15;;;;;;;13.90;1.48;;;17.00;83.90;;;;;;5092816;28;20020;-82
2022/05/13 13:44:43;;;;;;;9.60;1.63;;;16.90;83.60;;;;;;5093104;28;20046;-81